Time;durP1;ratioP1;P1;durP2;ratioP2;P2;SDS_P1;SDS_P2;PMS_P1;PMS_P2;Temp;Humidity;BMP_temperature;BMP_pressure;BME280_temperature;BME280_humidity;BME280_pressure;Samples;Min_cycle;Max_cycle;Signal;HPM_P1;HPM_P2
2023/05/27 00:00:19;;;;;;;10.10;3.60;;;;;;;11.81;61.38;101084.19;10422722;28;20456;-71
2023/05/27 00:05:21;;;;;;;7.93;3.30;;;;;;;11.73;62.84;101090.50;10422989;28;20092;-71
2023/05/27 00:10:22;;;;;;;9.45;3.60;;;;;;;11.72;62.81;101083.50;10422714;28;20041;-71
2023/05/27 00:15:24;;;;;;;14.80;3.67;;;;;;;11.58;63.28;101086.41;10422158;28;20052;-70
2023/05/27 00:20:26;;;;;;;11.40;3.88;;;;;;;11.36;65.32;101089.44;10421566;28;20037;-70
2023/05/27 00:25:27;;;;;;;8.90;3.38;;;;;;;11.25;65.90;101091.41;10420922;28;20120;-70
2023/05/27 00:30:30;;;;;;;9.55;4.13;;;;;;;11.39;66.36;101085.88;10420423;28;20042;-70
2023/05/27 00:35:32;;;;;;;8.70;3.65;;;;;;;11.17;67.97;101084.53;10420095;28;20113;-70
2023/05/27 00:40:34;;;;;;;8.93;3.60;;;;;;;11.11;69.16;101072.34;10419945;28;20048;-70
2023/05/27 00:45:36;;;;;;;8.30;2.88;;;;;;;11.08;68.47;101080.31;10419565;28;20060;-70
2023/05/27 00:50:39;;;;;;;11.27;4.18;;;;;;;11.02;69.11;101083.91;10420992;28;20061;-70
2023/05/27 00:55:41;;;;;;;12.05;3.97;;;;;;;10.73;70.67;101097.53;10420572;28;20045;-71
2023/05/27 01:00:43;;;;;;;10.25;3.72;;;;;;;10.53;71.75;101097.81;10419562;28;20054;-71
2023/05/27 01:05:44;;;;;;;14.55;4.70;;;;;;;10.59;72.18;101092.47;10418906;28;20128;-70
2023/05/27 01:10:54;;;;;;;8.20;3.70;;;;;;;10.52;72.82;101092.59;10417566;28;20140;-70
2023/05/27 01:16:01;;;;;;;14.88;4.43;;;;;;;10.68;72.73;101091.47;10417488;28;20050;-71
2023/05/27 01:21:06;;;;;;;9.85;3.67;;;;;;;10.65;73.08;101088.88;10418510;28;20048;-70
2023/05/27 01:26:08;;;;;;;11.38;3.72;;;;;;;10.60;73.32;101086.31;10418803;28;20041;-70
2023/05/27 01:31:21;;;;;;;9.90;4.43;;;;;;;10.53;74.02;101081.16;10418077;28;20042;-70
2023/05/27 01:36:26;;;;;;;7.88;4.05;;;;;;;10.43;75.50;101076.94;10416547;28;20052;-70
2023/05/27 01:41:28;;;;;;;11.50;4.30;;;;;;;10.29;75.94;101072.75;10416355;28;20069;-70
2023/05/27 01:46:30;;;;;;;15.05;4.90;;;;;;;10.10;77.68;101064.22;10416225;28;20053;-70
2023/05/27 01:51:31;;;;;;;8.68;4.40;;;;;;;10.24;77.91;101064.06;10416127;28;20045;-70
2023/05/27 01:56:33;;;;;;;9.90;4.47;;;;;;;10.13;78.42;101060.66;10418277;28;20064;-70
2023/05/27 02:01:36;;;;;;;13.32;4.88;;;;;;;10.12;78.66;101058.94;10416401;28;20041;-70
2023/05/27 02:06:38;;;;;;;16.58;4.80;;;;;;;9.97;80.01;101061.78;10415447;28;20128;-70
2023/05/27 02:11:40;;;;;;;9.82;4.50;;;;;;;9.80;81.00;101052.34;10415221;28;20045;-69
2023/05/27 02:16:42;;;;;;;12.95;4.70;;;;;;;9.52;82.95;101049.19;10416368;28;20076;-70
2023/05/27 02:21:44;;;;;;;13.13;4.63;;;;;;;9.20;84.38;101046.03;10416004;28;20506;-70
2023/05/27 02:26:46;;;;;;;11.32;5.20;;;;;;;9.14;84.90;101048.72;10414580;28;20510;-70
2023/05/27 02:31:48;;;;;;;11.00;4.40;;;;;;;9.44;84.48;101055.41;10414677;28;20084;-70
2023/05/27 02:36:50;;;;;;;8.45;3.90;;;;;;;9.29;85.60;101056.41;10415678;28;20133;-70
2023/05/27 02:41:52;;;;;;;10.88;4.22;;;;;;;9.35;85.09;101066.88;10414359;28;20453;-70
2023/05/27 02:46:53;;;;;;;10.40;4.47;;;;;;;9.44;84.08;101065.91;10414463;28;20136;-70
2023/05/27 02:51:55;;;;;;;15.55;4.25;;;;;;;9.31;85.10;101059.91;10415458;28;20526;-70
2023/05/27 02:56:57;;;;;;;12.38;5.13;;;;;;;9.21;85.26;101060.88;10415697;28;20045;-71
2023/05/27 03:01:59;;;;;;;10.93;4.45;;;;;;;8.95;86.66;101072.50;10415360;28;20220;-70
2023/05/27 03:07:01;;;;;;;10.27;4.00;;;;;;;8.71;88.80;101065.69;10413311;28;20056;-70
2023/05/27 03:12:03;;;;;;;9.88;4.18;;;;;;;8.79;88.20;101060.38;10416342;28;20510;-69
2023/05/27 03:17:06;;;;;;;9.07;4.53;;;;;;;8.72;89.20;101059.56;10415716;28;20073;-71
2023/05/27 03:22:10;;;;;;;12.70;4.60;;;;;;;8.77;88.39;101060.41;10414965;28;20489;-69
2023/05/27 03:27:14;;;;;;;18.97;4.83;;;;;;;8.68;89.64;101065.72;10413299;28;20076;-71
2023/05/27 03:32:18;;;;;;;10.07;4.00;;;;;;;8.42;90.55;101071.13;10413514;28;20049;-71
2023/05/27 03:37:23;;;;;;;9.55;4.90;;;;;;;8.75;90.30;101063.91;10413309;28;20096;-72
2023/05/27 03:42:33;;;;;;;8.63;4.35;;;;;;;8.43;93.23;101070.25;10412906;28;20092;-71
2023/05/27 03:47:35;;;;;;;9.32;5.28;;;;;;;8.31;94.68;101070.28;10414054;28;20077;-71
2023/05/27 03:52:38;;;;;;;11.02;4.90;;;;;;;8.44;94.25;101081.59;10414439;28;20092;-70
2023/05/27 03:57:40;;;;;;;8.75;4.28;;;;;;;8.58;93.64;101075.38;10414382;28;20054;-70
2023/05/27 04:02:41;;;;;;;12.35;5.28;;;;;;;8.78;92.02;101072.63;10414393;28;20041;-70
2023/05/27 04:07:43;;;;;;;11.38;6.07;;;;;;;8.84;91.64;101079.56;10428101;23;20049;-70
2023/05/27 04:12:45;;;;;;;8.20;4.95;;;;;;;9.08;90.71;101078.50;10423415;28;20052;-70
2023/05/27 04:17:47;;;;;;;10.43;4.93;;;;;;;9.21;90.64;101082.75;10425984;28;20076;-70
2023/05/27 04:22:50;;;;;;;13.75;5.80;;;;;;;9.27;89.99;101071.31;10427148;28;20037;-70
2023/05/27 04:27:52;;;;;;;14.60;6.05;;;;;;;9.31;89.35;101076.53;10424868;28;20049;-70
2023/05/27 04:32:54;;;;;;;9.32;5.75;;;;;;;9.55;88.53;101080.63;10424486;28;20494;-69
2023/05/27 04:37:58;;;;;;;15.05;6.10;;;;;;;9.65;88.12;101080.53;10423517;28;20519;-71
2023/05/27 04:43:05;;;;;;;14.43;6.22;;;;;;;9.77;85.87;101086.50;10424639;28;20451;-70
2023/05/27 04:48:07;;;;;;;13.82;6.82;;;;;;;9.98;84.26;101093.28;10424708;28;20441;-69
2023/05/27 04:53:09;;;;;;;16.77;6.40;;;;;;;10.09;83.12;101091.41;10424280;28;20053;-69
2023/05/27 04:58:12;;;;;;;17.15;7.05;;;;;;;10.19;82.59;101088.66;10423773;28;20140;-69
2023/05/27 05:03:21;;;;;;;12.05;6.15;;;;;;;10.24;82.97;101097.34;10423219;28;20045;-69
2023/05/27 05:08:24;;;;;;;12.43;6.80;;;;;;;10.26;84.24;101092.94;10424660;28;20053;-69
2023/05/27 05:13:28;;;;;;;8.95;4.85;;;;;;;10.69;81.61;101092.34;10424109;28;20042;-71
2023/05/27 05:18:31;;;;;;;7.75;4.68;;;;;;;10.73;81.97;101101.91;10424690;28;20117;-70
2023/05/27 05:23:34;;;;;;;17.92;5.55;;;;;;;11.04;80.16;101094.41;10424149;28;20059;-70
2023/05/27 05:28:36;;;;;;;8.20;4.50;;;;;;;11.41;78.72;101091.13;10423861;28;20076;-71
2023/05/27 05:33:40;;;;;;;17.15;4.70;;;;;;;11.63;77.25;101097.72;10422526;28;20132;-70
2023/05/27 05:38:44;;;;;;;16.45;5.80;;;;;;;11.81;74.55;101102.63;10421890;28;20140;-69
2023/05/27 05:43:47;;;;;;;11.30;4.60;;;;;;;12.14;73.57;101109.94;10423536;28;20033;-69
2023/05/27 05:48:52;;;;;;;9.50;4.35;;;;;;;12.82;70.96;101115.41;10423934;28;20068;-69
2023/05/27 05:54:04;;;;;;;12.40;5.60;;;;;;;13.19;68.26;101117.13;10425147;28;20136;-70
2023/05/27 05:59:15;;;;;;;12.32;4.50;;;;;;;13.88;64.93;101124.13;10423158;28;20049;-70
2023/05/27 06:04:17;;;;;;;11.93;4.32;;;;;;;13.93;63.45;101130.16;10422527;28;20080;-70
2023/05/27 06:09:21;;;;;;;14.40;5.38;;;;;;;14.21;59.72;101132.91;10421866;28;20044;-70
2023/05/27 06:14:24;;;;;;;11.35;3.80;;;;;;;14.17;59.13;101130.38;10421267;28;20049;-69
2023/05/27 06:19:29;;;;;;;11.43;4.13;;;;;;;14.44;58.34;101131.34;10423296;28;20044;-69
2023/05/27 06:24:32;;;;;;;12.88;4.25;;;;;;;15.02;56.41;101134.84;10422193;28;20046;-70
2023/05/27 06:29:48;;;;;;;10.18;4.00;;;;;;;15.55;53.98;101135.66;10421918;28;20446;-70
2023/05/27 06:34:57;;;;;;;10.00;4.05;;;;;;;15.38;55.54;101136.25;10421722;28;20050;-70
2023/05/27 06:39:59;;;;;;;9.38;4.13;;;;;;;15.78;53.16;101129.59;10422849;28;20124;-70
2023/05/27 06:45:01;;;;;;;8.52;4.07;;;;;;;16.14;53.24;101121.19;10423804;28;20037;-71
2023/05/27 06:50:06;;;;;;;14.32;4.50;;;;;;;15.53;53.42;101121.59;10417459;28;20041;-70
2023/05/27 06:55:08;;;;;;;8.90;3.53;;;;;;;16.39;51.09;101122.00;10418356;28;20111;-70
2023/05/27 07:00:36;;;;;;;10.65;3.50;;;;;;;16.08;52.78;101122.31;10422058;28;20041;-70
2023/05/27 07:05:55;;;;;;;8.35;3.55;;;;;;;16.42;52.36;101121.00;10418620;28;20487;-71
2023/05/27 07:10:59;;;;;;;10.27;4.13;;;;;;;16.68;50.16;101127.09;10419214;28;20049;-71
2023/05/27 07:16:02;;;;;;;12.80;4.40;;;;;;;16.61;50.26;101118.53;10418271;28;20538;-71
2023/05/27 07:21:04;;;;;;;11.27;3.90;;;;;;;16.84;49.85;101115.84;10417773;28;20057;-71
2023/05/27 07:26:06;;;;;;;8.18;4.03;;;;;;;17.36;48.14;101121.66;10418013;28;20476;-72
2023/05/27 07:31:08;;;;;;;9.32;3.60;;;;;;;18.05;45.75;101107.97;10417857;28;20046;-72
2023/05/27 07:36:16;;;;;;;10.40;4.07;;;;;;;16.97;48.67;101105.56;10418538;28;20136;-72
2023/05/27 07:41:18;;;;;;;7.32;3.35;;;;;;;17.21;49.46;101103.66;10417252;28;20484;-71
2023/05/27 07:46:20;;;;;;;10.95;3.85;;;;;;;17.18;47.68;101109.13;10420864;28;20049;-70
2023/05/27 07:51:22;;;;;;;7.47;3.17;;;;;;;17.11;48.65;101110.31;10408911;28;20046;-70
2023/05/27 07:56:24;;;;;;;16.63;3.85;;;;;;;17.33;47.91;101103.16;10423391;28;20050;-70
2023/05/27 08:01:30;;;;;;;13.93;3.90;;;;;;;17.31;48.24;101102.38;10424371;28;20049;-71
2023/05/27 08:06:32;;;;;;;7.35;3.22;;;;;;;17.12;47.34;101102.25;10423823;28;20438;-72
2023/05/27 08:12:06;;;;;;;10.93;3.95;;;;;;;17.62;46.61;101083.28;10443743;28;20053;-71
2023/05/27 08:17:22;;;;;;;6.73;3.13;;;;;;;18.38;45.70;101083.41;10445888;28;20050;-71
2023/05/27 08:22:36;;;;;;;9.60;3.80;;;;;;;17.82;46.07;101074.44;10422708;28;20046;-71
2023/05/27 08:28:01;;;;;;;10.63;3.47;;;;;;;17.73;45.84;101080.16;10423025;28;20053;-71
2023/05/27 08:33:23;;;;;;;6.57;3.15;;;;;;;18.12;45.66;101066.84;10431473;28;20049;-71
2023/05/27 08:38:24;;;;;;;8.48;3.30;;;;;;;18.32;44.36;101068.56;10463458;28;20092;-71
2023/05/27 08:43:34;;;;;;;8.70;3.58;;;;;;;18.65;43.47;101059.91;10447961;28;20068;-70
2023/05/27 08:48:37;;;;;;;8.40;3.60;;;;;;;18.71;44.50;101045.44;10462622;28;20072;-70
2023/05/27 08:53:39;;;;;;;4.88;2.35;;;;;;;18.92;43.64;101040.88;10462576;28;20045;-71
2023/05/27 08:58:42;;;;;;;7.72;2.78;;;;;;;18.03;43.57;101043.34;10461707;28;20045;-72
2023/05/27 09:03:44;;;;;;;9.63;3.53;;;;;;;17.94;43.45;101030.47;10461837;28;20049;-71
2023/05/27 09:08:47;;;;;;;7.90;2.70;;;;;;;18.67;42.71;101034.03;10445189;28;20110;-71
2023/05/27 09:13:55;;;;;;;6.10;2.72;;;;;;;19.01;41.93;101027.94;10464345;28;20037;-71
2023/05/27 09:18:57;;;;;;;6.20;2.60;;;;;;;19.50;41.40;101022.72;10462623;28;20041;-71
2023/05/27 09:23:59;;;;;;;5.63;2.65;;;;;;;19.89;39.54;101018.88;10462291;28;20041;-70
2023/05/27 09:29:03;;;;;;;4.40;2.67;;;;;;;20.08;39.14;101019.56;10462856;28;20040;-70
2023/05/27 09:34:12;;;;;;;6.70;3.15;;;;;;;20.35;39.11;101025.16;10461363;28;20052;-70
2023/05/27 09:39:15;;;;;;;4.78;2.35;;;;;;;20.43;40.34;101024.72;10460687;28;20068;-70
2023/05/27 09:44:17;;;;;;;7.22;3.35;;;;;;;20.64;39.73;101012.84;10460115;28;20075;-71
2023/05/27 09:49:20;;;;;;;7.13;2.20;;;;;;;20.93;37.84;101002.25;10462642;28;20087;-70
2023/05/27 09:54:23;;;;;;;5.93;2.67;;;;;;;20.24;37.78;101000.88;10460451;28;20052;-70
2023/05/27 09:59:25;;;;;;;7.35;3.03;;;;;;;20.00;39.05;100999.59;10460784;28;20055;-70
2023/05/27 10:04:28;;;;;;;5.18;2.67;;;;;;;20.91;38.57;100977.44;10460122;28;20037;-70
2023/05/27 10:09:31;;;;;;;6.80;2.92;;;;;;;20.74;38.01;100970.41;10448979;22;20155;-69
2023/05/27 10:14:34;;;;;;;5.88;2.60;;;;;;;20.54;37.77;100971.59;10418698;28;20076;-68
2023/05/27 10:19:36;;;;;;;7.35;2.75;;;;;;;20.97;37.46;100961.00;10419177;28;20041;-68
2023/05/27 10:24:39;;;;;;;4.88;2.42;;;;;;;21.53;35.51;100963.88;10417819;28;20587;-68
2023/05/27 10:29:41;;;;;;;5.38;2.20;;;;;;;22.00;34.68;100971.56;10416665;28;20045;-69
2023/05/27 10:34:46;;;;;;;6.22;2.72;;;;;;;21.74;33.71;100964.34;10417252;28;20053;-69
2023/05/27 10:39:55;;;;;;;6.30;2.97;;;;;;;21.06;35.67;100960.44;10417568;28;20049;-70
2023/05/27 10:45:06;;;;;;;4.00;2.13;;;;;;;21.58;40.12;100959.09;10415621;28;20054;-69
2023/05/27 10:50:13;;;;;;;6.38;2.70;;;;;;;21.26;34.35;100956.56;10416762;28;20041;-68
2023/05/27 10:55:16;;;;;;;4.63;2.60;;;;;;;21.95;33.99;100951.38;10417263;28;20068;-68
2023/05/27 11:00:20;;;;;;;5.30;2.40;;;;;;;22.83;34.83;100941.94;10415201;28;20033;-69
2023/05/27 11:05:28;;;;;;;3.65;2.08;;;;;;;21.98;33.17;100937.81;10417487;28;20049;-69
2023/05/27 11:10:30;;;;;;;5.63;2.70;;;;;;;22.10;32.81;100937.00;10415180;28;20129;-69
2023/05/27 11:15:32;;;;;;;5.40;2.17;;;;;;;21.73;33.67;100938.50;10416104;28;20124;-69
2023/05/27 11:20:35;;;;;;;4.60;2.30;;;;;;;21.58;34.19;100930.50;10417948;28;20493;-69
2023/05/27 11:25:44;;;;;;;3.83;1.88;;;;;;;21.69;34.32;100919.13;10426992;28;20061;-68
2023/05/27 11:30:45;;;;;;;4.70;2.28;;;;;;;22.16;31.30;100910.69;10424285;28;20120;-68
2023/05/27 11:35:50;;;;;;;4.47;2.47;;;;;;;22.03;32.17;100912.44;10424302;28;20573;-69
2023/05/27 11:40:52;;;;;;;3.80;2.22;;;;;;;22.45;33.31;100899.88;10424428;28;20041;-68
2023/05/27 11:46:03;;;;;;;4.70;2.20;;;;;;;22.80;31.99;100897.47;10425327;28;20156;-69
2023/05/27 11:51:05;;;;;;;4.93;2.10;;;;;;;22.18;34.17;100889.19;10424798;28;20065;-69
2023/05/27 11:56:07;;;;;;;3.83;2.05;;;;;;;22.29;33.14;100885.78;10423360;28;20129;-68
2023/05/27 12:01:09;;;;;;;5.20;2.40;;;;;;;22.57;33.79;100872.22;10423030;28;20402;-68
2023/05/27 12:06:11;;;;;;;4.68;2.17;;;;;;;22.37;33.97;100865.56;10421780;28;20045;-68
2023/05/27 12:11:13;;;;;;;7.10;1.70;;;;;;;22.27;34.11;100860.91;10424824;28;20072;-69
2023/05/27 12:16:14;;;;;;;6.70;2.28;;;;;;;22.44;34.57;100846.38;10423088;28;20087;-69
2023/05/27 12:21:17;;;;;;;4.55;1.90;;;;;;;23.32;31.59;100848.22;10423081;28;20042;-69
2023/05/27 12:26:19;;;;;;;4.55;2.17;;;;;;;23.18;32.49;100842.97;10423291;28;20037;-68
2023/05/27 12:31:20;;;;;;;4.78;2.25;;;;;;;23.01;31.58;100835.28;10423429;28;20117;-68
2023/05/27 12:36:22;;;;;;;3.85;2.30;;;;;;;22.94;33.17;100834.88;10422211;28;20044;-68
2023/05/27 12:41:25;;;;;;;4.53;2.35;;;;;;;23.14;32.71;100833.44;10422369;28;20047;-68
2023/05/27 12:46:27;;;;;;;4.07;2.00;;;;;;;23.03;31.50;100823.50;10422345;28;20546;-68
2023/05/27 12:51:30;;;;;;;2.80;1.90;;;;;;;22.42;30.57;100825.94;10424796;28;20041;-68
2023/05/27 12:56:32;;;;;;;3.55;2.08;;;;;;;22.41;31.38;100813.50;10421339;28;20045;-67
2023/05/27 13:01:34;;;;;;;4.30;1.67;;;;;;;22.91;32.30;100811.81;10420964;28;20049;-67
2023/05/27 13:06:36;;;;;;;3.28;1.80;;;;;;;23.74;30.87;100813.88;10420977;28;20128;-68
2023/05/27 13:11:38;;;;;;;7.63;2.40;;;;;;;22.79;31.98;100801.91;10420954;28;20041;-68
2023/05/27 13:16:40;;;;;;;3.88;2.28;;;;;;;22.30;31.12;100799.13;10422621;28;20474;-68
2023/05/27 13:21:42;;;;;;;3.90;1.90;;;;;;;22.36;31.48;100788.84;10420745;28;20503;-68
2023/05/27 13:26:43;;;;;;;4.20;2.38;;;;;;;22.39;31.76;100785.09;10420186;28;20125;-68
2023/05/27 13:31:47;;;;;;;2.65;1.60;;;;;;;22.45;31.44;100773.97;10418913;28;20056;-68
2023/05/27 13:36:49;;;;;;;3.45;2.10;;;;;;;22.49;31.29;100770.13;10420967;28;20120;-68
2023/05/27 13:41:51;;;;;;;3.05;1.95;;;;;;;22.53;31.49;100766.22;10418310;28;20482;-69
2023/05/27 13:46:53;;;;;;;3.28;1.90;;;;;;;22.31;31.16;100752.63;10418649;28;20095;-69
2023/05/27 13:51:55;;;;;;;3.58;2.15;;;;;;;22.20;31.48;100755.19;10419527;28;20029;-69
2023/05/27 13:56:57;;;;;;;5.43;1.73;;;;;;;22.49;29.63;100759.41;10423259;28;20052;-70
2023/05/27 14:01:58;;;;;;;3.55;2.17;;;;;;;21.92;30.87;100749.03;10419330;28;20091;-68
2023/05/27 14:07:00;;;;;;;4.38;2.47;;;;;;;22.35;30.46;100743.41;10418624;28;20052;-68
2023/05/27 14:12:03;;;;;;;5.15;2.30;;;;;;;22.82;30.36;100747.25;10419089;28;20440;-69
2023/05/27 14:17:05;;;;;;;4.32;2.40;;;;;;;22.62;30.41;100744.16;10416916;28;20116;-69
2023/05/27 14:22:07;;;;;;;3.42;1.80;;;;;;;22.67;29.07;100725.94;10419431;28;20041;-72
2023/05/27 14:27:09;;;;;;;4.10;2.47;;;;;;;22.70;29.33;100721.31;10417720;28;20045;-72
2023/05/27 14:32:11;;;;;;;3.47;1.90;;;;;;;22.89;29.49;100721.72;10417319;28;20054;-72
2023/05/27 14:37:12;;;;;;;3.95;2.20;;;;;;;23.00;30.45;100719.13;10417649;28;20045;-73
2023/05/27 14:42:14;;;;;;;3.28;2.40;;;;;;;22.40;31.79;100715.34;10416148;28;20563;-71
2023/05/27 14:47:16;;;;;;;5.03;2.35;;;;;;;22.74;30.83;100712.09;10417036;28;20037;-71
2023/05/27 14:52:18;;;;;;;4.35;2.78;;;;;;;22.48;31.26;100711.25;10417372;28;20041;-72
2023/05/27 14:57:21;;;;;;;3.55;2.00;;;;;;;22.84;29.35;100699.72;10416037;28;20037;-72
2023/05/27 15:02:22;;;;;;;3.55;2.00;;;;;;;22.94;29.19;100706.19;10417151;28;20065;-72
2023/05/27 15:07:24;;;;;;;3.05;2.17;;;;;;;23.17;29.77;100688.41;10415594;28;20433;-72
2023/05/27 15:12:44;;;;;;;8.48;2.47;;;;;;;23.21;30.26;100683.69;10415947;28;20038;-72
2023/05/27 15:17:46;;;;;;;4.43;2.15;;;;;;;22.88;30.40;100671.72;10415143;28;20068;-72
2023/05/27 15:22:48;;;;;;;6.35;2.30;;;;;;;23.16;30.98;100676.81;10414760;28;20042;-72
2023/05/27 15:27:50;;;;;;;2.90;2.08;;;;;;;23.76;29.77;100675.00;10417345;28;20045;-72
2023/05/27 15:32:51;;;;;;;2.70;1.70;;;;;;;23.78;29.05;100670.41;10416132;28;20034;-71
2023/05/27 15:37:53;;;;;;;5.00;2.47;;;;;;;23.42;29.03;100665.97;10414596;28;20045;-71
2023/05/27 15:42:55;;;;;;;2.80;2.20;;;;;;;23.68;29.85;100658.63;10415541;28;20069;-71
2023/05/27 15:47:56;;;;;;;3.72;2.40;;;;;;;23.83;29.97;100657.47;10415696;28;20141;-71
2023/05/27 15:52:58;;;;;;;4.03;2.00;;;;;;;23.53;29.59;100649.06;10416619;28;20065;-69
2023/05/27 15:58:01;;;;;;;4.00;2.08;;;;;;;23.54;29.62;100642.72;10414645;28;20057;-72
2023/05/27 16:03:03;;;;;;;2.67;2.20;;;;;;;22.91;30.01;100642.06;10414009;28;20041;-70
2023/05/27 16:08:05;;;;;;;2.58;1.90;;;;;;;22.52;31.83;100637.75;10415775;28;20049;-70
2023/05/27 16:13:06;;;;;;;2.97;1.98;;;;;;;22.24;31.24;100628.16;10440134;23;20380;-71
2023/05/27 16:18:09;;;;;;;3.75;2.08;;;;;;;22.59;30.47;100633.66;10424346;28;20101;-71
2023/05/27 16:23:11;;;;;;;5.88;2.28;;;;;;;22.26;31.17;100615.50;10424419;28;20073;-71
2023/05/27 16:28:13;;;;;;;4.00;2.33;;;;;;;22.21;30.91;100615.81;10422924;28;20068;-71
2023/05/27 16:33:15;;;;;;;3.25;1.98;;;;;;;21.73;32.97;100609.38;10425797;28;20112;-70
2023/05/27 16:38:21;;;;;;;3.35;2.25;;;;;;;21.30;32.45;100604.28;10425553;28;20128;-71
2023/05/27 16:43:24;;;;;;;4.13;1.95;;;;;;;21.38;32.94;100605.50;10424563;28;20048;-71
2023/05/27 16:48:26;;;;;;;5.32;2.22;;;;;;;21.06;33.61;100604.09;10426909;28;20064;-71
2023/05/27 16:53:27;;;;;;;5.05;2.80;;;;;;;20.78;33.38;100589.88;10422898;28;20038;-71
2023/05/27 16:58:29;;;;;;;2.72;2.00;;;;;;;20.47;33.83;100585.63;10424087;28;20380;-71
2023/05/27 17:03:31;;;;;;;3.83;2.25;;;;;;;20.45;33.81;100584.84;10422776;28;20072;-71
2023/05/27 17:08:34;;;;;;;5.03;2.60;;;;;;;20.34;36.53;100582.88;10424896;28;20037;-71
2023/05/27 17:13:36;;;;;;;4.80;2.42;;;;;;;20.21;36.17;100575.75;10422929;28;20045;-71
2023/05/27 17:18:38;;;;;;;6.88;2.42;;;;;;;20.03;36.22;100575.94;10423093;28;20099;-70
2023/05/27 17:23:40;;;;;;;4.30;2.85;;;;;;;19.90;37.29;100567.84;10422755;28;20140;-71
2023/05/27 17:28:42;;;;;;;3.95;2.75;;;;;;;19.76;37.52;100559.00;10425929;28;20040;-71
2023/05/27 17:33:45;;;;;;;4.78;3.40;;;;;;;19.80;36.43;100568.53;10427499;28;20045;-71
2023/05/27 17:38:47;;;;;;;4.28;2.95;;;;;;;19.55;37.17;100574.47;10424648;28;20045;-71
2023/05/27 17:43:49;;;;;;;4.35;2.63;;;;;;;19.74;37.04;100576.88;10423732;28;20128;-71
2023/05/27 17:48:51;;;;;;;4.40;3.08;;;;;;;19.50;39.45;100573.88;10424183;28;20466;-71
2023/05/27 17:53:54;;;;;;;6.30;2.78;;;;;;;19.47;37.67;100574.06;10421200;28;20046;-72
2023/05/27 17:58:56;;;;;;;5.63;3.47;;;;;;;19.38;37.20;100570.97;10425501;28;20368;-71
2023/05/27 18:03:57;;;;;;;6.20;3.83;;;;;;;19.06;39.45;100567.56;10421426;28;20072;-71
2023/05/27 18:08:59;;;;;;;5.18;3.70;;;;;;;19.19;38.20;100562.38;10424475;28;20057;-71
2023/05/27 18:14:01;;;;;;;6.13;4.30;;;;;;;18.96;38.71;100562.88;10424945;28;20045;-71
2023/05/27 18:19:03;;;;;;;6.68;4.10;;;;;;;19.03;38.30;100561.56;10424619;28;20064;-71
2023/05/27 18:24:05;;;;;;;6.43;3.63;;;;;;;18.80;39.44;100557.56;10422182;28;20045;-71
2023/05/27 18:29:07;;;;;;;5.55;3.80;;;;;;;18.69;40.19;100557.31;10422084;28;20041;-72
2023/05/27 18:34:10;;;;;;;8.68;5.63;;;;;;;18.71;39.32;100548.28;10423330;28;20491;-73
2023/05/27 18:39:12;;;;;;;6.50;5.38;;;;;;;18.32;40.62;100556.69;10422238;28;20050;-72
2023/05/27 18:44:14;;;;;;;7.43;4.90;;;;;;;18.22;40.88;100558.16;10420132;28;20072;-73
2023/05/27 18:49:16;;;;;;;6.60;4.05;;;;;;;18.26;40.40;100559.72;10422137;28;20050;-71
2023/05/27 18:54:19;;;;;;;6.00;3.58;;;;;;;17.95;41.27;100564.03;10420658;28;20065;-72
2023/05/27 18:59:21;;;;;;;7.45;3.83;;;;;;;18.01;40.76;100563.69;10420066;28;20037;-72
2023/05/27 19:04:23;;;;;;;6.30;3.72;;;;;;;17.86;41.73;100561.88;10416966;28;20041;-72
2023/05/27 19:09:25;;;;;;;5.22;4.45;;;;;;;17.55;42.00;100560.81;10417076;28;20145;-72
2023/05/27 19:14:27;;;;;;;6.32;3.88;;;;;;;17.43;42.69;100569.41;10419579;28;20049;-72
2023/05/27 19:19:30;;;;;;;6.47;3.78;;;;;;;17.32;43.14;100571.78;10419260;28;20049;-72
2023/05/27 19:24:31;;;;;;;8.63;3.92;;;;;;;17.14;45.75;100569.09;10418409;28;20068;-71
2023/05/27 19:29:33;;;;;;;6.45;3.83;;;;;;;16.93;47.15;100561.34;10417679;28;20049;-71
2023/05/27 19:34:35;;;;;;;7.10;4.43;;;;;;;16.58;48.77;100567.41;10416194;28;20052;-71
2023/05/27 19:39:37;;;;;;;5.40;4.57;;;;;;;16.44;49.12;100561.91;10417409;28;20079;-71
2023/05/27 19:44:39;;;;;;;5.28;4.57;;;;;;;16.17;49.71;100561.41;10426093;28;20134;-71
2023/05/27 19:49:40;;;;;;;7.03;5.78;;;;;;;16.03;50.77;100567.38;10425596;28;20049;-71
2023/05/27 19:54:42;;;;;;;7.78;5.30;;;;;;;15.97;50.50;100564.97;10426784;28;20542;-71
2023/05/27 19:59:47;;;;;;;8.55;4.68;;;;;;;15.86;51.16;100559.31;10425083;28;20045;-71
2023/05/27 20:04:49;;;;;;;7.65;5.75;;;;;;;15.51;51.61;100567.00;10424594;28;20053;-71
2023/05/27 20:09:50;;;;;;;7.47;4.65;;;;;;;15.47;52.59;100560.13;10423506;28;20045;-71
2023/05/27 20:14:52;;;;;;;8.20;5.72;;;;;;;15.34;53.91;100556.28;10423906;28;20045;-71
2023/05/27 20:19:54;;;;;;;10.00;6.90;;;;;;;15.20;55.51;100559.50;10423962;28;20057;-71
2023/05/27 20:24:57;;;;;;;8.30;7.30;;;;;;;15.07;56.08;100567.13;10423837;28;20495;-71
2023/05/27 20:29:58;;;;;;;11.20;9.75;;;;;;;14.96;56.28;100571.13;10421880;28;20454;-71
2023/05/27 20:35:00;;;;;;;15.60;14.20;;;;;;;14.87;57.55;100577.66;10424460;28;20486;-72
2023/05/27 20:40:03;;;;;;;10.88;9.75;;;;;;;14.47;59.49;100573.06;10421807;28;20084;-70
2023/05/27 20:45:05;;;;;;;10.63;9.43;;;;;;;14.39;60.12;100568.09;10421731;28;20049;-72
2023/05/27 20:50:07;;;;;;;11.43;9.73;;;;;;;14.24;60.62;100576.59;10422505;28;20049;-73
2023/05/27 20:55:09;;;;;;;11.13;9.73;;;;;;;14.30;60.90;100576.38;10420737;28;20383;-72
2023/05/27 21:00:12;;;;;;;9.32;8.43;;;;;;;14.49;59.89;100572.13;10421332;28;20075;-71
2023/05/27 21:05:14;;;;;;;7.85;7.05;;;;;;;14.26;60.93;100573.00;10422458;28;20041;-71
2023/05/27 21:10:16;;;;;;;7.43;6.72;;;;;;;14.10;61.50;100567.41;10421446;28;20041;-71
2023/05/27 21:15:18;;;;;;;11.35;7.43;;;;;;;13.99;62.14;100574.00;10421335;28;20558;-71
2023/05/27 21:20:19;;;;;;;9.02;6.72;;;;;;;13.82;62.97;100575.50;10421312;28;20474;-72
2023/05/27 21:25:21;;;;;;;7.55;6.75;;;;;;;13.50;64.20;100571.41;10419587;28;20048;-71
2023/05/27 21:30:23;;;;;;;7.50;6.68;;;;;;;13.38;65.33;100567.41;10421264;28;20038;-70
2023/05/27 21:35:25;;;;;;;8.65;7.53;;;;;;;13.40;64.91;100567.34;10419656;28;20107;-72
2023/05/27 21:40:27;;;;;;;8.68;7.60;;;;;;;13.32;65.26;100564.94;10419950;28;20054;-71
2023/05/27 21:45:28;;;;;;;8.98;7.07;;;;;;;13.14;66.04;100558.50;10418215;28;20427;-70
2023/05/27 21:50:30;;;;;;;7.75;6.95;;;;;;;12.98;67.63;100559.94;10419979;28;20095;-70
2023/05/27 21:55:32;;;;;;;8.38;7.38;;;;;;;12.98;67.17;100559.94;10420766;28;20087;-71
2023/05/27 22:00:34;;;;;;;8.15;7.00;;;;;;;13.04;66.94;100556.22;10420028;28;20099;-72
2023/05/27 22:05:36;;;;;;;9.50;8.00;;;;;;;12.95;67.63;100561.81;10418137;28;20116;-71
2023/05/27 22:10:38;;;;;;;8.10;6.63;;;;;;;12.77;68.65;100561.50;10432595;22;20116;-71
2023/05/27 22:15:41;;;;;;;12.07;8.00;;;;;;;12.76;68.97;100549.22;10418796;28;20446;-71
2023/05/27 22:20:44;;;;;;;8.23;6.07;;;;;;;12.59;70.13;100548.91;10418400;28;20574;-71
2023/05/27 22:25:46;;;;;;;11.32;6.47;;;;;;;12.47;70.22;100549.28;10418529;28;20051;-71
2023/05/27 22:30:48;;;;;;;7.90;6.50;;;;;;;12.56;70.23;100554.25;10418290;28;20077;-71
2023/05/27 22:35:50;;;;;;;7.82;6.28;;;;;;;12.33;72.28;100547.06;10417331;28;20045;-71
2023/05/27 22:40:52;;;;;;;8.20;6.15;;;;;;;12.31;72.22;100543.63;10418405;28;20129;-70
2023/05/27 22:45:54;;;;;;;9.85;6.35;;;;;;;12.26;73.26;100535.88;10417003;28;20463;-70
2023/05/27 22:50:56;;;;;;;10.02;5.85;;;;;;;12.08;73.46;100537.25;10417622;28;20050;-70
2023/05/27 22:55:57;;;;;;;8.15;6.13;;;;;;;12.15;73.45;100527.41;10416580;28;20095;-70
2023/05/27 23:00:59;;;;;;;7.57;6.22;;;;;;;12.02;73.64;100523.44;10416390;28;20049;-70
2023/05/27 23:06:01;;;;;;;7.13;5.80;;;;;;;12.28;73.02;100517.38;10416129;28;20040;-71
2023/05/27 23:11:03;;;;;;;7.60;5.40;;;;;;;11.99;74.07;100523.50;10417069;28;20103;-70